sensor_id;sensor_type;location;lat;lon;timestamp;P1;durP1;ratioP1;P2;durP2;ratioP2
62010;SDS011;47967;51.756;10.174;2022-10-31T05:04:16;10.93;;;5.43;;
62010;SDS011;47967;51.756;10.174;2022-10-31T05:08:20;9.07;;;4.32;;
62010;SDS011;47967;51.756;10.174;2022-10-31T05:12:25;12.65;;;5.30;;
62010;SDS011;47967;51.756;10.174;2022-10-31T05:16:40;9.73;;;4.90;;
62010;SDS011;47967;51.756;10.174;2022-10-31T05:21:02;10.57;;;4.88;;
62010;SDS011;47967;51.756;10.174;2022-10-31T05:25:09;9.43;;;4.60;;
62010;SDS011;47967;51.756;10.174;2022-10-31T05:29:11;10.30;;;4.60;;
62010;SDS011;47967;51.756;10.174;2022-10-31T05:33:14;16.73;;;4.85;;
62010;SDS011;47967;51.756;10.174;2022-10-31T05:37:37;9.73;;;4.70;;
62010;SDS011;47967;51.756;10.174;2022-10-31T05:41:39;12.23;;;4.95;;
62010;SDS011;47967;51.756;10.174;2022-10-31T05:45:51;15.57;;;5.93;;
62010;SDS011;47967;51.756;10.174;2022-10-31T05:50:14;8.60;;;4.18;;
62010;SDS011;47967;51.756;10.174;2022-10-31T05:54:23;10.23;;;4.45;;
62010;SDS011;47967;51.756;10.174;2022-10-31T05:58:25;16.88;;;4.97;;
62010;SDS011;47967;51.756;10.174;2022-10-31T06:02:36;9.02;;;4.57;;
62010;SDS011;47967;51.756;10.174;2022-10-31T06:06:44;8.85;;;4.38;;
62010;SDS011;47967;51.756;10.174;2022-10-31T06:10:48;12.30;;;4.97;;
62010;SDS011;47967;51.756;10.174;2022-10-31T06:14:57;13.23;;;5.20;;
62010;SDS011;47967;51.756;10.174;2022-10-31T06:19:00;11.53;;;5.63;;
62010;SDS011;47967;51.756;10.174;2022-10-31T06:23:03;12.23;;;5.40;;
62010;SDS011;47967;51.756;10.174;2022-10-31T06:27:09;9.13;;;5.18;;
62010;SDS011;47967;51.756;10.174;2022-10-31T06:31:12;10.52;;;5.57;;
62010;SDS011;47967;51.756;10.174;2022-10-31T06:35:14;13.77;;;6.47;;
62010;SDS011;47967;51.756;10.174;2022-10-31T06:39:17;13.77;;;5.25;;
62010;SDS011;47967;51.756;10.174;2022-10-31T06:43:22;13.30;;;5.15;;
62010;SDS011;47967;51.756;10.174;2022-10-31T06:47:36;7.53;;;5.00;;
62010;SDS011;47967;51.756;10.174;2022-10-31T06:52:01;10.77;;;5.18;;
62010;SDS011;47967;51.756;10.174;2022-10-31T06:56:05;10.63;;;5.05;;
62010;SDS011;47967;51.756;10.174;2022-10-31T07:00:15;12.35;;;6.05;;
62010;SDS011;47967;51.756;10.174;2022-10-31T07:04:21;8.63;;;5.13;;
62010;SDS011;47967;51.756;10.174;2022-10-31T07:08:25;16.05;;;6.18;;
62010;SDS011;47967;51.756;10.174;2022-10-31T07:12:28;11.05;;;4.93;;
62010;SDS011;47967;51.756;10.174;2022-10-31T07:16:34;11.68;;;4.97;;
62010;SDS011;47967;51.756;10.174;2022-10-31T07:20:38;12.43;;;4.88;;
62010;SDS011;47967;51.756;10.174;2022-10-31T07:24:42;10.85;;;5.25;;
62010;SDS011;47967;51.756;10.174;2022-10-31T07:29:17;10.45;;;5.45;;
62010;SDS011;47967;51.756;10.174;2022-10-31T07:33:21;10.83;;;5.60;;
62010;SDS011;47967;51.756;10.174;2022-10-31T07:37:56;11.98;;;5.65;;
62010;SDS011;47967;51.756;10.174;2022-10-31T07:42:03;10.38;;;5.45;;
62010;SDS011;47967;51.756;10.174;2022-10-31T07:46:06;11.63;;;5.78;;
62010;SDS011;47967;51.756;10.174;2022-10-31T07:50:31;12.55;;;5.82;;
62010;SDS011;47967;51.756;10.174;2022-10-31T07:54:53;10.23;;;5.72;;
62010;SDS011;47967;51.756;10.174;2022-10-31T07:58:57;13.63;;;5.65;;
62010;SDS011;47967;51.756;10.174;2022-10-31T08:03:00;11.90;;;5.97;;
62010;SDS011;47967;51.756;10.174;2022-10-31T08:07:35;13.35;;;6.28;;
62010;SDS011;47967;51.756;10.174;2022-10-31T08:11:41;16.13;;;7.03;;
62010;SDS011;47967;51.756;10.174;2022-10-31T08:15:44;14.13;;;6.00;;
62010;SDS011;47967;51.756;10.174;2022-10-31T08:19:51;14.00;;;5.85;;
62010;SDS011;47967;51.756;10.174;2022-10-31T08:24:00;10.52;;;5.82;;
62010;SDS011;47967;51.756;10.174;2022-10-31T08:28:03;10.90;;;5.65;;
62010;SDS011;47967;51.756;10.174;2022-10-31T08:32:06;14.70;;;6.07;;
62010;SDS011;47967;51.756;10.174;2022-10-31T08:36:27;14.52;;;6.10;;
62010;SDS011;47967;51.756;10.174;2022-10-31T08:40:49;13.55;;;6.10;;
62010;SDS011;47967;51.756;10.174;2022-10-31T08:44:52;10.80;;;5.63;;
62010;SDS011;47967;51.756;10.174;2022-10-31T08:48:56;15.77;;;6.07;;
62010;SDS011;47967;51.756;10.174;2022-10-31T08:53:02;20.27;;;6.30;;
62010;SDS011;47967;51.756;10.174;2022-10-31T08:57:09;19.23;;;6.00;;
62010;SDS011;47967;51.756;10.174;2022-10-31T09:01:15;14.10;;;5.50;;
62010;SDS011;47967;51.756;10.174;2022-10-31T09:05:18;13.05;;;5.40;;
62010;SDS011;47967;51.756;10.174;2022-10-31T09:09:22;19.60;;;5.90;;
62010;SDS011;47967;51.756;10.174;2022-10-31T09:13:26;10.77;;;5.57;;
62010;SDS011;47967;51.756;10.174;2022-10-31T09:17:55;15.57;;;5.10;;
62010;SDS011;47967;51.756;10.174;2022-10-31T09:22:04;13.10;;;5.50;;
62010;SDS011;47967;51.756;10.174;2022-10-31T09:26:07;24.13;;;6.03;;
62010;SDS011;47967;51.756;10.174;2022-10-31T09:30:13;10.90;;;5.00;;
62010;SDS011;47967;51.756;10.174;2022-10-31T09:34:17;10.65;;;5.05;;
62010;SDS011;47967;51.756;10.174;2022-10-31T09:38:29;13.93;;;5.40;;
62010;SDS011;47967;51.756;10.174;2022-10-31T09:42:39;16.92;;;5.43;;
62010;SDS011;47967;51.756;10.174;2022-10-31T09:46:58;11.27;;;5.00;;
62010;SDS011;47967;51.756;10.174;2022-10-31T09:51:07;13.70;;;5.25;;
62010;SDS011;47967;51.756;10.174;2022-10-31T09:55:25;14.70;;;5.78;;
62010;SDS011;47967;51.756;10.174;2022-10-31T09:59:33;13.80;;;5.88;;
62010;SDS011;47967;51.756;10.174;2022-10-31T10:03:41;15.00;;;5.97;;
62010;SDS011;47967;51.756;10.174;2022-10-31T10:08:21;13.32;;;5.72;;
62010;SDS011;47967;51.756;10.174;2022-10-31T10:12:57;12.77;;;6.00;;
62010;SDS011;47967;51.756;10.174;2022-10-31T10:17:20;14.55;;;5.93;;
62010;SDS011;47967;51.756;10.174;2022-10-31T10:21:36;13.93;;;5.85;;
62010;SDS011;47967;51.756;10.174;2022-10-31T10:25:48;15.10;;;5.88;;
62010;SDS011;47967;51.756;10.174;2022-10-31T10:29:58;12.07;;;5.63;;
62010;SDS011;47967;51.756;10.174;2022-10-31T10:34:06;12.32;;;5.93;;
62010;SDS011;47967;51.756;10.174;2022-10-31T10:38:19;13.07;;;6.28;;
62010;SDS011;47967;51.756;10.174;2022-10-31T10:42:26;14.30;;;6.20;;
62010;SDS011;47967;51.756;10.174;2022-10-31T10:46:48;10.55;;;6.20;;
62010;SDS011;47967;51.756;10.174;2022-10-31T10:51:18;15.18;;;6.60;;
62010;SDS011;47967;51.756;10.174;2022-10-31T10:55:46;21.48;;;6.53;;
62010;SDS011;47967;51.756;10.174;2022-10-31T10:59:58;16.05;;;6.68;;
62010;SDS011;47967;51.756;10.174;2022-10-31T11:04:23;14.13;;;6.40;;
62010;SDS011;47967;51.756;10.174;2022-10-31T11:08:31;14.68;;;7.15;;
62010;SDS011;47967;51.756;10.174;2022-10-31T11:12:37;15.88;;;6.38;;
62010;SDS011;47967;51.756;10.174;2022-10-31T11:16:40;15.10;;;6.78;;
62010;SDS011;47967;51.756;10.174;2022-10-31T11:20:50;17.67;;;6.82;;
62010;SDS011;47967;51.756;10.174;2022-10-31T11:24:54;16.00;;;6.70;;
62010;SDS011;47967;51.756;10.174;2022-10-31T11:28:59;26.20;;;6.90;;
62010;SDS011;47967;51.756;10.174;2022-10-31T11:33:03;12.15;;;6.38;;
62010;SDS011;47967;51.756;10.174;2022-10-31T11:37:09;14.93;;;6.82;;
62010;SDS011;47967;51.756;10.174;2022-10-31T11:41:16;12.43;;;6.72;;
62010;SDS011;47967;51.756;10.174;2022-10-31T11:45:28;18.60;;;6.90;;
62010;SDS011;47967;51.756;10.174;2022-10-31T11:49:34;11.32;;;6.95;;
62010;SDS011;47967;51.756;10.174;2022-10-31T11:53:47;14.75;;;7.38;;
62010;SDS011;47967;51.756;10.174;2022-10-31T11:58:00;14.43;;;6.97;;
62010;SDS011;47967;51.756;10.174;2022-10-31T12:02:17;16.50;;;7.45;;
62010;SDS011;47967;51.756;10.174;2022-10-31T12:06:22;17.42;;;7.10;;
62010;SDS011;47967;51.756;10.174;2022-10-31T12:10:31;17.92;;;7.70;;
62010;SDS011;47967;51.756;10.174;2022-10-31T12:14:43;12.65;;;7.20;;
62010;SDS011;47967;51.756;10.174;2022-10-31T12:18:58;16.98;;;7.05;;
62010;SDS011;47967;51.756;10.174;2022-10-31T12:23:05;15.13;;;7.40;;
62010;SDS011;47967;51.756;10.174;2022-10-31T12:27:19;17.20;;;7.82;;
62010;SDS011;47967;51.756;10.174;2022-10-31T12:31:33;15.95;;;8.60;;
62010;SDS011;47967;51.756;10.174;2022-10-31T12:35:49;15.43;;;7.30;;
62010;SDS011;47967;51.756;10.174;2022-10-31T12:40:02;13.85;;;7.55;;
62010;SDS011;47967;51.756;10.174;2022-10-31T12:44:26;14.82;;;7.90;;
62010;SDS011;47967;51.756;10.174;2022-10-31T12:53:18;15.43;;;8.45;;
62010;SDS011;47967;51.756;10.174;2022-10-31T12:57:35;19.50;;;8.40;;
62010;SDS011;47967;51.756;10.174;2022-10-31T13:01:44;21.50;;;8.15;;
62010;SDS011;47967;51.756;10.174;2022-10-31T13:05:53;16.92;;;8.15;;
62010;SDS011;47967;51.756;10.174;2022-10-31T13:10:01;20.00;;;8.27;;
62010;SDS011;47967;51.756;10.174;2022-10-31T13:14:10;17.65;;;9.45;;
62010;SDS011;47967;51.756;10.174;2022-10-31T13:18:22;23.17;;;11.30;;
62010;SDS011;47967;51.756;10.174;2022-10-31T13:22:30;21.02;;;10.35;;
62010;SDS011;47967;51.756;10.174;2022-10-31T13:26:38;19.77;;;10.77;;
62010;SDS011;47967;51.756;10.174;2022-10-31T13:30:48;22.30;;;10.57;;
62010;SDS011;47967;51.756;10.174;2022-10-31T13:34:52;25.38;;;10.82;;
62010;SDS011;47967;51.756;10.174;2022-10-31T13:38:59;22.10;;;10.63;;
62010;SDS011;47967;51.756;10.174;2022-10-31T13:43:14;19.55;;;9.80;;
62010;SDS011;47967;51.756;10.174;2022-10-31T13:47:26;17.88;;;10.13;;
62010;SDS011;47967;51.756;10.174;2022-10-31T13:51:30;19.05;;;11.05;;
62010;SDS011;47967;51.756;10.174;2022-10-31T13:55:36;23.85;;;10.40;;
62010;SDS011;47967;51.756;10.174;2022-10-31T13:59:46;22.23;;;10.70;;
62010;SDS011;47967;51.756;10.174;2022-10-31T14:03:56;21.08;;;9.82;;
62010;SDS011;47967;51.756;10.174;2022-10-31T14:08:15;17.13;;;9.13;;
62010;SDS011;47967;51.756;10.174;2022-10-31T14:12:24;20.33;;;9.15;;
62010;SDS011;47967;51.756;10.174;2022-10-31T14:16:32;19.48;;;9.50;;
62010;SDS011;47967;51.756;10.174;2022-10-31T14:20:39;18.73;;;8.85;;
62010;SDS011;47967;51.756;10.174;2022-10-31T14:24:43;21.80;;;9.38;;
62010;SDS011;47967;51.756;10.174;2022-10-31T14:28:46;19.80;;;8.45;;
62010;SDS011;47967;51.756;10.174;2022-10-31T14:32:53;20.00;;;7.97;;
62010;SDS011;47967;51.756;10.174;2022-10-31T14:37:04;17.80;;;7.88;;
62010;SDS011;47967;51.756;10.174;2022-10-31T14:46:00;15.90;;;7.55;;
62010;SDS011;47967;51.756;10.174;2022-10-31T14:54:38;19.08;;;7.43;;
62010;SDS011;47967;51.756;10.174;2022-10-31T14:58:44;16.80;;;7.13;;
62010;SDS011;47967;51.756;10.174;2022-10-31T15:02:51;17.48;;;6.90;;
62010;SDS011;47967;51.756;10.174;2022-10-31T15:07:06;12.80;;;6.95;;
62010;SDS011;47967;51.756;10.174;2022-10-31T15:11:15;14.27;;;6.50;;
62010;SDS011;47967;51.756;10.174;2022-10-31T15:15:21;15.40;;;7.18;;
62010;SDS011;47967;51.756;10.174;2022-10-31T15:19:26;19.92;;;9.82;;
62010;SDS011;47967;51.756;10.174;2022-10-31T15:23:32;18.65;;;8.82;;
62010;SDS011;47967;51.756;10.174;2022-10-31T15:27:34;19.40;;;8.85;;
62010;SDS011;47967;51.756;10.174;2022-10-31T15:31:37;20.35;;;10.15;;
62010;SDS011;47967;51.756;10.174;2022-10-31T15:35:40;20.50;;;10.70;;
62010;SDS011;47967;51.756;10.174;2022-10-31T15:39:44;21.33;;;10.60;;
62010;SDS011;47967;51.756;10.174;2022-10-31T15:43:48;14.95;;;7.75;;
62010;SDS011;47967;51.756;10.174;2022-10-31T15:47:53;23.20;;;12.35;;
62010;SDS011;47967;51.756;10.174;2022-10-31T15:52:02;19.85;;;9.90;;
62010;SDS011;47967;51.756;10.174;2022-10-31T15:56:10;16.77;;;8.27;;
62010;SDS011;47967;51.756;10.174;2022-10-31T16:00:22;17.58;;;7.65;;
62010;SDS011;47967;51.756;10.174;2022-10-31T16:04:26;19.58;;;9.02;;
62010;SDS011;47967;51.756;10.174;2022-10-31T16:08:33;18.35;;;8.27;;
62010;SDS011;47967;51.756;10.174;2022-10-31T16:12:43;29.02;;;17.20;;
62010;SDS011;47967;51.756;10.174;2022-10-31T16:16:48;18.13;;;9.18;;
62010;SDS011;47967;51.756;10.174;2022-10-31T16:20:54;32.72;;;15.57;;
62010;SDS011;47967;51.756;10.174;2022-10-31T16:25:00;19.02;;;11.38;;
62010;SDS011;47967;51.756;10.174;2022-10-31T16:33:37;21.20;;;11.60;;
62010;SDS011;47967;51.756;10.174;2022-10-31T16:37:41;25.15;;;14.80;;
62010;SDS011;47967;51.756;10.174;2022-10-31T16:45:49;27.17;;;16.02;;
62010;SDS011;47967;51.756;10.174;2022-10-31T16:49:54;24.52;;;13.65;;
62010;SDS011;47967;51.756;10.174;2022-10-31T16:54:01;30.90;;;18.20;;
62010;SDS011;47967;51.756;10.174;2022-10-31T16:58:03;25.65;;;12.75;;
62010;SDS011;47967;51.756;10.174;2022-10-31T17:02:06;33.38;;;20.25;;
62010;SDS011;47967;51.756;10.174;2022-10-31T17:06:17;34.70;;;18.20;;
62010;SDS011;47967;51.756;10.174;2022-10-31T17:10:20;33.00;;;17.35;;
62010;SDS011;47967;51.756;10.174;2022-10-31T17:14:23;27.25;;;17.90;;
62010;SDS011;47967;51.756;10.174;2022-10-31T17:18:25;27.48;;;16.27;;
62010;SDS011;47967;51.756;10.174;2022-10-31T17:22:30;27.80;;;14.55;;
62010;SDS011;47967;51.756;10.174;2022-10-31T17:26:32;20.17;;;11.02;;
62010;SDS011;47967;51.756;10.174;2022-10-31T17:30:35;26.23;;;13.07;;
62010;SDS011;47967;51.756;10.174;2022-10-31T17:34:39;22.05;;;10.90;;
62010;SDS011;47967;51.756;10.174;2022-10-31T17:38:43;18.80;;;9.50;;
62010;SDS011;47967;51.756;10.174;2022-10-31T17:42:49;19.83;;;10.77;;
62010;SDS011;47967;51.756;10.174;2022-10-31T17:46:52;17.05;;;9.73;;
62010;SDS011;47967;51.756;10.174;2022-10-31T17:50:58;19.23;;;11.07;;
62010;SDS011;47967;51.756;10.174;2022-10-31T17:55:03;19.33;;;11.55;;
62010;SDS011;47967;51.756;10.174;2022-10-31T17:59:06;23.42;;;13.95;;
62010;SDS011;47967;51.756;10.174;2022-10-31T18:03:08;22.75;;;12.93;;
62010;SDS011;47967;51.756;10.174;2022-10-31T18:07:11;29.17;;;14.27;;
62010;SDS011;47967;51.756;10.174;2022-10-31T18:11:20;27.63;;;14.55;;
62010;SDS011;47967;51.756;10.174;2022-10-31T18:15:23;22.95;;;13.68;;
62010;SDS011;47967;51.756;10.174;2022-10-31T18:19:25;32.90;;;16.10;;
62010;SDS011;47967;51.756;10.174;2022-10-31T18:23:28;24.07;;;14.63;;
62010;SDS011;47967;51.756;10.174;2022-10-31T18:27:32;29.27;;;15.52;;
62010;SDS011;47967;51.756;10.174;2022-10-31T18:31:35;27.25;;;15.30;;
62010;SDS011;47967;51.756;10.174;2022-10-31T18:35:38;26.80;;;14.97;;
62010;SDS011;47967;51.756;10.174;2022-10-31T18:39:44;27.58;;;14.73;;
62010;SDS011;47967;51.756;10.174;2022-10-31T18:43:48;31.67;;;14.90;;
62010;SDS011;47967;51.756;10.174;2022-10-31T18:47:51;26.35;;;12.93;;
62010;SDS011;47967;51.756;10.174;2022-10-31T18:51:54;25.42;;;13.23;;
62010;SDS011;47967;51.756;10.174;2022-10-31T18:55:57;23.88;;;11.95;;
62010;SDS011;47967;51.756;10.174;2022-10-31T19:00:02;21.02;;;12.18;;
62010;SDS011;47967;51.756;10.174;2022-10-31T19:04:06;23.88;;;13.07;;
62010;SDS011;47967;51.756;10.174;2022-10-31T19:08:09;34.80;;;14.60;;
62010;SDS011;47967;51.756;10.174;2022-10-31T19:12:12;33.05;;;15.48;;
62010;SDS011;47967;51.756;10.174;2022-10-31T19:16:16;30.33;;;13.93;;
62010;SDS011;47967;51.756;10.174;2022-10-31T19:20:19;29.38;;;13.65;;
62010;SDS011;47967;51.756;10.174;2022-10-31T19:24:22;28.20;;;16.33;;
62010;SDS011;47967;51.756;10.174;2022-10-31T19:28:24;36.70;;;20.07;;
62010;SDS011;47967;51.756;10.174;2022-10-31T19:32:28;28.97;;;15.53;;
62010;SDS011;47967;51.756;10.174;2022-10-31T19:36:31;27.42;;;15.00;;
62010;SDS011;47967;51.756;10.174;2022-10-31T19:40:36;23.65;;;13.25;;
62010;SDS011;47967;51.756;10.174;2022-10-31T19:44:39;26.55;;;12.95;;
62010;SDS011;47967;51.756;10.174;2022-10-31T19:48:43;25.13;;;13.40;;
62010;SDS011;47967;51.756;10.174;2022-10-31T19:52:46;21.23;;;13.38;;
62010;SDS011;47967;51.756;10.174;2022-10-31T19:56:48;22.13;;;13.30;;
62010;SDS011;47967;51.756;10.174;2022-10-31T20:00:52;27.10;;;13.15;;
62010;SDS011;47967;51.756;10.174;2022-10-31T20:04:57;22.40;;;12.55;;
62010;SDS011;47967;51.756;10.174;2022-10-31T20:09:00;30.25;;;15.48;;
62010;SDS011;47967;51.756;10.174;2022-10-31T20:13:03;24.70;;;14.05;;
62010;SDS011;47967;51.756;10.174;2022-10-31T20:17:06;21.90;;;12.60;;
62010;SDS011;47967;51.756;10.174;2022-10-31T20:21:12;27.88;;;12.20;;
62010;SDS011;47967;51.756;10.174;2022-10-31T20:25:15;25.88;;;13.32;;
62010;SDS011;47967;51.756;10.174;2022-10-31T20:33:21;19.40;;;9.90;;
62010;SDS011;47967;51.756;10.174;2022-10-31T20:37:25;18.17;;;10.57;;
62010;SDS011;47967;51.756;10.174;2022-10-31T20:41:28;25.25;;;10.90;;
62010;SDS011;47967;51.756;10.174;2022-10-31T20:45:30;19.83;;;10.97;;
62010;SDS011;47967;51.756;10.174;2022-10-31T20:53:37;21.60;;;11.48;;
62010;SDS011;47967;51.756;10.174;2022-10-31T20:57:40;23.85;;;11.00;;
62010;SDS011;47967;51.756;10.174;2022-10-31T21:01:43;18.47;;;10.37;;
62010;SDS011;47967;51.756;10.174;2022-10-31T21:05:50;21.23;;;11.43;;
62010;SDS011;47967;51.756;10.174;2022-10-31T21:09:55;22.17;;;11.02;;
62010;SDS011;47967;51.756;10.174;2022-10-31T21:13:58;20.15;;;10.88;;
62010;SDS011;47967;51.756;10.174;2022-10-31T21:18:01;24.30;;;12.95;;
62010;SDS011;47967;51.756;10.174;2022-10-31T21:22:03;31.70;;;14.30;;
62010;SDS011;47967;51.756;10.174;2022-10-31T21:26:09;31.30;;;15.83;;
62010;SDS011;47967;51.756;10.174;2022-10-31T21:30:14;46.20;;;18.15;;
62010;SDS011;47967;51.756;10.174;2022-10-31T21:34:16;48.67;;;21.97;;
62010;SDS011;47967;51.756;10.174;2022-10-31T21:38:19;47.60;;;22.07;;
62010;SDS011;47967;51.756;10.174;2022-10-31T21:42:23;30.00;;;14.47;;
62010;SDS011;47967;51.756;10.174;2022-10-31T21:46:26;29.45;;;14.27;;
62010;SDS011;47967;51.756;10.174;2022-10-31T21:50:30;29.98;;;13.25;;
62010;SDS011;47967;51.756;10.174;2022-10-31T21:54:33;26.30;;;12.97;;
62010;SDS011;47967;51.756;10.174;2022-10-31T21:58:38;26.20;;;13.40;;
